Time;durP1;ratioP1;P1;durP2;ratioP2;P2;SDS_P1;SDS_P2;PMS_P1;PMS_P2;Temp;Humidity;BMP_temperature;BMP_pressure;BME280_temperature;BME280_humidity;BME280_pressure;Samples;Min_cycle;Max_cycle;Signal;HPM_P1;HPM_P2
2022/10/06 00:03:49;;;;;;;;;;;;;;;12.94;71.35645;102055.9;;;;-74
2022/10/06 00:08:52;;;;;;;;;;;;;;;12.88;71.22266;102069.8;;;;-75
2022/10/06 00:13:49;;;;;;;;;;;;;;;12.81;71.34668;102076.3;;;;-75
2022/10/06 00:18:49;;;;;;;;;;;;;;;12.82;71.05664;102092.3;;;;-74
2022/10/06 00:23:49;;;;;;;;;;;;;;;12.78;70.91504;102095.1;;;;-74
2022/10/06 00:28:49;;;;;;;;;;;;;;;12.76;70.90234;102105.5;;;;-74
2022/10/06 00:29:17;;;;;;;7.3;1;;;;;;;;;;;;;-74
2022/10/06 00:33:49;;;;;;;;;;;;;;;12.71;70.75977;102123.7;;;;-75
2022/10/06 00:38:49;;;;;;;;;;;;;;;12.68;70.74414;102127.8;;;;-74
2022/10/06 00:43:53;;;;;;;;;;;;;;;12.64;70.62695;102129.8;;;;-74
2022/10/06 00:48:50;;;;;;;;;;;;;;;12.61;70.69922;102150.4;;;;-74
2022/10/06 00:53:49;;;;;;;;;;;;;;;12.57;70.37012;102154.8;;;;-73
2022/10/06 00:58:49;;;;;;;;;;;;;;;12.52;70.30566;102172.2;;;;-74
2022/10/06 00:59:19;;;;;;;4.4;0.9;;;;;;;;;;;;;-74
2022/10/06 01:03:51;;;;;;;;;;;;;;;12.46;70.25098;102167.3;;;;-74
2022/10/06 01:08:49;;;;;;;;;;;;;;;12.43;70.02539;102186.3;;;;-75
2022/10/06 01:13:49;;;;;;;;;;;;;;;12.37;69.84766;102196.8;;;;-75
2022/10/06 01:18:50;;;;;;;;;;;;;;;12.31;70.01465;102203.9;;;;-75
2022/10/06 01:23:49;;;;;;;;;;;;;;;12.28;69.84473;102219.7;;;;-75
2022/10/06 01:28:49;;;;;;;;;;;;;;;12.2;69.82031;102227.4;;;;-75
2022/10/06 01:29:19;;;;;;;2.8;0.7;;;;;;;;;;;;;-74
2022/10/06 01:33:53;;;;;;;;;;;;;;;12.18;69.72852;102228.1;;;;-74
2022/10/06 01:38:50;;;;;;;;;;;;;;;12.12;69.61816;102239.3;;;;-75
2022/10/06 01:43:49;;;;;;;;;;;;;;;12.06;69.75391;102245.8;;;;-74
2022/10/06 01:48:49;;;;;;;;;;;;;;;12.04;69.80469;102251.4;;;;-74
2022/10/06 01:53:49;;;;;;;;;;;;;;;12.01;69.80078;102259.6;;;;-74
2022/10/06 01:58:49;;;;;;;;;;;;;;;11.95;69.70313;102264.1;;;;-75
2022/10/06 01:59:20;;;;;;;5.8;0.8;;;;;;;;;;;;;-75
2022/10/06 02:03:48;;;;;;;;;;;;;;;11.91;69.87305;102269.2;;;;-74
2022/10/06 02:08:49;;;;;;;;;;;;;;;11.89;69.7041;102273.4;;;;-75
2022/10/06 02:13:49;;;;;;;;;;;;;;;11.91;69.72949;102284.4;;;;-75
2022/10/06 02:18:49;;;;;;;;;;;;;;;11.82;69.79395;102292.2;;;;-76
2022/10/06 02:23:49;;;;;;;;;;;;;;;11.8;69.86719;102297.8;;;;-76
2022/10/06 02:28:49;;;;;;;;;;;;;;;11.76;69.84961;102304.1;;;;-74
2022/10/06 02:29:20;;;;;;;4.5;0.9;;;;;;;;;;;;;-74
2022/10/06 02:33:50;;;;;;;;;;;;;;;11.74;69.86816;102299.4;;;;-76
2022/10/06 02:38:49;;;;;;;;;;;;;;;11.76;69.78223;102320.6;;;;-74
2022/10/06 02:43:52;;;;;;;;;;;;;;;11.71;69.96582;102334;;;;-75
2022/10/06 02:48:54;;;;;;;;;;;;;;;11.71;69.8877;102345.5;;;;-75
2022/10/06 02:53:52;;;;;;;;;;;;;;;11.71;69.86523;102341.6;;;;-74
2022/10/06 02:58:52;;;;;;;;;;;;;;;11.73;70.11328;102353.5;;;;-76
2022/10/06 02:59:21;;;;;;;6.5;0.9;;;;;;;;;;;;;-75
2022/10/06 03:03:52;;;;;;;;;;;;;;;11.7;69.95215;102364.1;;;;-75
2022/10/06 03:08:49;;;;;;;;;;;;;;;11.69;69.9834;102375.5;;;;-77
2022/10/06 03:13:51;;;;;;;;;;;;;;;11.68;70.06055;102386.6;;;;-76
2022/10/06 03:19:01;;;;;;;;;;;;;;;11.7;69.97363;102390.9;;;;-76
2022/10/06 03:23:50;;;;;;;;;;;;;;;11.68;70.07129;102400.2;;;;-75
2022/10/06 03:28:50;;;;;;;;;;;;;;;11.65;70.17871;102409;;;;-76
2022/10/06 03:29:22;;;;;;;5.1;1;;;;;;;;;;;;;-75
2022/10/06 03:33:51;;;;;;;;;;;;;;;11.64;70.09863;102413;;;;-77
2022/10/06 03:38:49;;;;;;;;;;;;;;;11.62;70.09473;102416.9;;;;-75
2022/10/06 03:43:55;;;;;;;;;;;;;;;11.54;70.21484;102429.8;;;;-76
2022/10/06 03:48:49;;;;;;;;;;;;;;;11.54;70.25;102435.8;;;;-74
2022/10/06 03:53:51;;;;;;;;;;;;;;;11.5;70.03125;102445.3;;;;-75
2022/10/06 03:58:52;;;;;;;;;;;;;;;11.43;70.08789;102456.1;;;;-74
2022/10/06 03:59:24;;;;;;;5.6;0.9;;;;;;;;;;;;;-75
2022/10/06 04:03:49;;;;;;;;;;;;;;;11.41;70.13867;102461.5;;;;-76
2022/10/06 04:08:49;;;;;;;;;;;;;;;11.38;70.03418;102474.2;;;;-75
2022/10/06 04:13:55;;;;;;;;;;;;;;;11.35;70.11914;102478.6;;;;-74
2022/10/06 04:18:52;;;;;;;;;;;;;;;11.32;70.08008;102486.2;;;;-76
2022/10/06 04:23:51;;;;;;;;;;;;;;;11.32;70.10352;102490.7;;;;-75
2022/10/06 04:28:52;;;;;;;;;;;;;;;11.27;70.14844;102497.3;;;;-77
2022/10/06 04:29:23;;;;;;;8.2;1;;;;;;;;;;;;;-74
2022/10/06 04:33:49;;;;;;;;;;;;;;;11.23;70.16504;102511.6;;;;-75
2022/10/06 04:38:55;;;;;;;;;;;;;;;11.2;70.11621;102519.1;;;;-75
2022/10/06 04:43:53;;;;;;;;;;;;;;;11.19;70.19141;102524.9;;;;-75
2022/10/06 04:48:51;;;;;;;;;;;;;;;11.16;70.18848;102528.4;;;;-76
2022/10/06 04:53:49;;;;;;;;;;;;;;;11.12;70.1377;102537.8;;;;-77
2022/10/06 04:58:49;;;;;;;;;;;;;;;11.07;70.11816;102547.1;;;;-76
2022/10/06 05:00:21;;;;;;;4.4;0.7;;;;;;;;;;;;;-75
2022/10/06 05:03:50;;;;;;;;;;;;;;;11.05;70.37109;102544.8;;;;-76
2022/10/06 05:08:50;;;;;;;;;;;;;;;11.03;70.52246;102554.5;;;;-78
2022/10/06 05:13:49;;;;;;;;;;;;;;;11.01;70.21875;102561.8;;;;-75
2022/10/06 05:18:49;;;;;;;;;;;;;;;11;70.48535;102570.6;;;;-74
2022/10/06 05:23:49;;;;;;;;;;;;;;;10.98;70.44824;102574.8;;;;-75
2022/10/06 05:28:49;;;;;;;;;;;;;;;10.94;70.20703;102580.7;;;;-75
2022/10/06 05:29:27;;;;;;;4.4;0.9;;;;;;;;;;;;;-75
2022/10/06 05:33:52;;;;;;;;;;;;;;;10.93;70.22852;102588.6;;;;-75
2022/10/06 05:38:49;;;;;;;;;;;;;;;10.91;70.53613;102595.2;;;;-76
2022/10/06 05:43:49;;;;;;;;;;;;;;;10.87;70.50781;102604.7;;;;-77
2022/10/06 05:48:49;;;;;;;;;;;;;;;10.85;70.64941;102608.4;;;;-76
2022/10/06 05:53:51;;;;;;;;;;;;;;;10.82;70.70996;102617.9;;;;-74
2022/10/06 05:58:50;;;;;;;;;;;;;;;10.83;70.50195;102626.4;;;;-75
2022/10/06 05:59:26;;;;;;;3.7;0.9;;;;;;;;;;;;;-75
2022/10/06 06:03:52;;;;;;;;;;;;;;;10.79;70.68359;102630;;;;-76
2022/10/06 06:08:48;;;;;;;;;;;;;;;10.76;70.78906;102639.1;;;;-75
2022/10/06 06:13:49;;;;;;;;;;;;;;;10.76;70.7002;102646.9;;;;-71
2022/10/06 06:18:50;;;;;;;;;;;;;;;10.77;70.5918;102655;;;;-72
2022/10/06 06:23:52;;;;;;;;;;;;;;;10.83;70.83594;102667.8;;;;-74
2022/10/06 06:28:49;;;;;;;;;;;;;;;10.88;70.83203;102673.3;;;;-74
2022/10/06 06:29:27;;;;;;;3.3;0.8;;;;;;;;;;;;;-75
2022/10/06 06:33:48;;;;;;;;;;;;;;;10.93;70.78516;102678.6;;;;-75
2022/10/06 06:38:50;;;;;;;;;;;;;;;10.99;70.91797;102688.8;;;;-76
2022/10/06 06:43:49;;;;;;;;;;;;;;;11.08;70.99707;102689.8;;;;-74
2022/10/06 06:48:49;;;;;;;;;;;;;;;11.2;70.5498;102699.2;;;;-74
2022/10/06 06:53:49;;;;;;;;;;;;;;;11.33;70.77051;102706;;;;-76
2022/10/06 06:58:54;;;;;;;;;;;;;;;11.46;71.42676;102712;;;;-75
2022/10/06 06:59:28;;;;;;;6.1;1;;;;;;;;;;;;;-74
2022/10/06 07:03:49;;;;;;;;;;;;;;;11.67;70.28125;102715.4;;;;-75
2022/10/06 07:08:52;;;;;;;;;;;;;;;11.87;69.92383;102729.8;;;;-75
2022/10/06 07:13:50;;;;;;;;;;;;;;;12.02;70.19238;102742.4;;;;-76
2022/10/06 07:28:49;;;;;;;;;;;;;;;12.54;69.49609;102760.3;;;;-75
2022/10/06 07:29:28;;;;;;;6.8;1.2;;;;;;;;;;;;;-75
2022/10/06 07:33:49;;;;;;;;;;;;;;;12.7;69.46484;102769.7;;;;-76
2022/10/06 07:38:52;;;;;;;;;;;;;;;12.93;69.33496;102781.2;;;;-74
2022/10/06 07:43:49;;;;;;;;;;;;;;;13.12;68.73828;102781.9;;;;-72
2022/10/06 07:48:52;;;;;;;;;;;;;;;13.36;68.59766;102787.4;;;;-72
2022/10/06 07:53:49;;;;;;;;;;;;;;;13.6;67.50488;102792.1;;;;-75
2022/10/06 07:58:49;;;;;;;;;;;;;;;13.94;67.45801;102799.5;;;;-76
2022/10/06 07:59:29;;;;;;;5.2;1;;;;;;;;;;;;;-75
2022/10/06 08:03:52;;;;;;;;;;;;;;;14.28;67.19531;102800.4;;;;-76
2022/10/06 08:08:53;;;;;;;;;;;;;;;14.66;66.70313;102804.1;;;;-75
2022/10/06 08:13:50;;;;;;;;;;;;;;;15.16;65.27539;102814.5;;;;-76
2022/10/06 08:18:52;;;;;;;;;;;;;;;15.51;64.15723;102830.3;;;;-75
2022/10/06 08:23:49;;;;;;;;;;;;;;;15.92;62.44824;102827.3;;;;-76
2022/10/06 08:28:50;;;;;;;;;;;;;;;16.05;61.49805;102839.4;;;;-75
2022/10/06 08:29:31;;;;;;;4.5;0.9;;;;;;;;;;;;;-75
2022/10/06 08:33:54;;;;;;;;;;;;;;;16.12;60.98828;102849.2;;;;-75
2022/10/06 08:38:50;;;;;;;;;;;;;;;15.76;61.66016;102861.2;;;;-75
2022/10/06 08:43:50;;;;;;;;;;;;;;;15.75;61.86133;102860.7;;;;-75
2022/10/06 08:48:51;;;;;;;;;;;;;;;15.74;61.17383;102866.8;;;;-76
2022/10/06 08:53:55;;;;;;;;;;;;;;;15.58;61.46582;102872.2;;;;-76
2022/10/06 08:58:52;;;;;;;;;;;;;;;15.98;61.64551;102870.5;;;;-77
2022/10/06 08:59:36;;;;;;;4.9;0.6;;;;;;;;;;;;;-75
2022/10/06 09:03:51;;;;;;;;;;;;;;;16.58;59.86914;102872.9;;;;-75
2022/10/06 09:08:52;;;;;;;;;;;;;;;16.83;58.68262;102888.6;;;;-75
2022/10/06 09:13:54;;;;;;;;;;;;;;;16.55;58.29492;102893.2;;;;-74
2022/10/06 09:18:54;;;;;;;;;;;;;;;16.25;59.05762;102893.1;;;;-73
2022/10/06 09:23:55;;;;;;;;;;;;;;;16.57;58.55664;102899.9;;;;-74
2022/10/06 09:28:49;;;;;;;;;;;;;;;16.78;57.46582;102900.8;;;;-75
2022/10/06 09:29:36;;;;;;;4.4;0.7;;;;;;;;;;;;;-74
2022/10/06 09:33:50;;;;;;;;;;;;;;;17.07;56.30566;102903.6;;;;-74
2022/10/06 09:38:56;;;;;;;;;;;;;;;16.91;56.49902;102914;;;;-74
2022/10/06 09:43:54;;;;;;;;;;;;;;;16.7;57.21973;102919.9;;;;-77
2022/10/06 09:49:02;;;;;;;;;;;;;;;16.73;57.34766;102912.4;;;;-76
2022/10/06 09:53:59;;;;;;;;;;;;;;;17.05;57.50293;102909.3;;;;-72
2022/10/06 09:58:55;;;;;;;;;;;;;;;17.47;57.10352;102913.8;;;;-71
2022/10/06 09:59:39;;;;;;;5.9;0.8;;;;;;;;;;;;;-72
2022/10/06 10:03:54;;;;;;;;;;;;;;;17.72;56.48926;102914.9;;;;-71
2022/10/06 10:08:49;;;;;;;;;;;;;;;17.77;55.63672;102915.3;;;;-72
2022/10/06 10:13:49;;;;;;;;;;;;;;;18.06;54.78613;102918.5;;;;-72
2022/10/06 10:18:55;;;;;;;;;;;;;;;17.96;54.18359;102916.6;;;;-70
2022/10/06 10:23:56;;;;;;;;;;;;;;;18.1;54.15723;102927.5;;;;-70
2022/10/06 10:29:01;;;;;;;;;;;;;;;18.02;53.86426;102931.4;;;;-71
2022/10/06 10:29:44;;;;;;;6.4;0.8;;;;;;;;;;;;;-70
2022/10/06 10:33:56;;;;;;;;;;;;;;;17.82;53.82715;102933.6;;;;-71
2022/10/06 10:38:51;;;;;;;;;;;;;;;18.03;54.45508;102928.9;;;;-75
2022/10/06 10:43:52;;;;;;;;;;;;;;;18.03;54.28516;102946.4;;;;-73
2022/10/06 10:48:54;;;;;;;;;;;;;;;18.33;54.22949;102940;;;;-71
2022/10/06 10:53:52;;;;;;;;;;;;;;;18.36;53.54102;102945.9;;;;-74
2022/10/06 10:58:52;;;;;;;;;;;;;;;18.13;52.92383;102954.9;;;;-74
2022/10/06 10:59:46;;;;;;;5.5;0.8;;;;;;;;;;;;;-75
2022/10/06 11:03:55;;;;;;;;;;;;;;;17.93;53.25195;102964.7;;;;-75
2022/10/06 11:08:54;;;;;;;;;;;;;;;17.9;53.67871;102956.2;;;;-74
2022/10/06 11:13:52;;;;;;;;;;;;;;;18.03;53.92188;102965.6;;;;-75
2022/10/06 11:18:58;;;;;;;;;;;;;;;18.25;54.60645;102973.1;;;;-74
2022/10/06 11:24:00;;;;;;;;;;;;;;;18.24;53.75293;102972.2;;;;-74
2022/10/06 11:28:52;;;;;;;;;;;;;;;18.36;54.42676;102976.4;;;;-74
2022/10/06 11:29:48;;;;;;;5.9;0.9;;;;;;;;;;;;;-75
2022/10/06 11:33:53;;;;;;;;;;;;;;;18.3;53.11523;102967.4;;;;-75
2022/10/06 11:38:52;;;;;;;;;;;;;;;18.3;53.19434;102981;;;;-74
2022/10/06 11:43:53;;;;;;;;;;;;;;;18.51;53.10449;102988.8;;;;-74
2022/10/06 11:48:49;;;;;;;;;;;;;;;18.64;53.81445;102984.5;;;;-78
2022/10/06 11:53:49;;;;;;;;;;;;;;;18.74;54.43848;102976;;;;-74
2022/10/06 11:59:11;;;;;;;;;;;;;;;18.79;53.47949;102975.3;;;;-74
2022/10/06 11:59:53;;;;;;;6.4;1;;;;;;;;;;;;;-76
2022/10/06 12:03:54;;;;;;;;;;;;;;;18.54;53.49414;102975.9;;;;-75
2022/10/06 12:08:49;;;;;;;;;;;;;;;18.66;52.53223;102978.1;;;;-76
2022/10/06 12:13:53;;;;;;;;;;;;;;;18.75;53.66797;102975.6;;;;-75
2022/10/06 12:18:52;;;;;;;;;;;;;;;18.85;53.27148;102971.8;;;;-73
2022/10/06 12:24:01;;;;;;;;;;;;;;;18.89;53.16211;102969;;;;-71
2022/10/06 12:28:55;;;;;;;;;;;;;;;18.83;53.0752;102967.9;;;;-75
2022/10/06 12:29:55;;;;;;;5.8;1;;;;;;;;;;;;;-75
2022/10/06 12:33:49;;;;;;;;;;;;;;;18.67;51.56836;102961.5;;;;-75
2022/10/06 12:38:59;;;;;;;;;;;;;;;18.82;54.7002;102959.1;;;;-74
2022/10/06 12:44:04;;;;;;;;;;;;;;;18.91;52.11816;102963.6;;;;-75
2022/10/06 12:48:54;;;;;;;;;;;;;;;19.05;52.73828;102961.7;;;;-75
2022/10/06 12:53:52;;;;;;;;;;;;;;;19.05;52.27148;102965.6;;;;-75
2022/10/06 12:58:48;;;;;;;;;;;;;;;18.93;51.59668;102960.2;;;;-74
2022/10/06 12:59:53;;;;;;;5.6;1.1;;;;;;;;;;;;;-75
2022/10/06 13:03:49;;;;;;;;;;;;;;;19.11;52.00586;102954.7;;;;-75
2022/10/06 13:09:04;;;;;;;;;;;;;;;18.98;52.27441;102972;;;;-75
2022/10/06 13:13:58;;;;;;;;;;;;;;;18.96;51.19043;102955.9;;;;-74
2022/10/06 13:18:49;;;;;;;;;;;;;;;19.01;51.11719;102949.1;;;;-75
2022/10/06 13:23:49;;;;;;;;;;;;;;;18.74;50.94922;102952.7;;;;-75
2022/10/06 13:28:54;;;;;;;;;;;;;;;18.66;50.59863;102954.5;;;;-75
2022/10/06 13:29:53;;;;;;;6;0.9;;;;;;;;;;;;;-75
2022/10/06 13:33:51;;;;;;;;;;;;;;;18.68;51.51172;102955;;;;-75
2022/10/06 13:38:48;;;;;;;;;;;;;;;18.56;51.63281;102952;;;;-75
2022/10/06 13:43:59;;;;;;;;;;;;;;;18.68;53.39844;102950.2;;;;-75
2022/10/06 13:48:52;;;;;;;;;;;;;;;18.64;54.85938;102951.9;;;;-74
2022/10/06 13:53:52;;;;;;;;;;;;;;;18.64;54.37109;102950.2;;;;-75
2022/10/06 13:58:52;;;;;;;;;;;;;;;18.64;52.2793;102953;;;;-74
2022/10/06 14:00:04;;;;;;;4.4;0.9;;;;;;;;;;;;;-76
2022/10/06 14:03:48;;;;;;;;;;;;;;;18.43;51.82324;102951.2;;;;-75
2022/10/06 14:08:52;;;;;;;;;;;;;;;18.38;52.60156;102946.9;;;;-74
2022/10/06 14:13:52;;;;;;;;;;;;;;;18.34;51.59668;102955.7;;;;-75
2022/10/06 14:18:55;;;;;;;;;;;;;;;18.31;52.00195;102947.4;;;;-74
2022/10/06 14:23:52;;;;;;;;;;;;;;;18.28;53.03223;102951.4;;;;-76
2022/10/06 14:28:52;;;;;;;;;;;;;;;18.19;52.91895;102946.1;;;;-74
2022/10/06 14:29:58;;;;;;;4.4;0.9;;;;;;;;;;;;;-76
2022/10/06 14:33:50;;;;;;;;;;;;;;;18.11;53.625;102950.4;;;;-75
2022/10/06 14:38:49;;;;;;;;;;;;;;;18.02;51.58203;102953.9;;;;-74
2022/10/06 14:43:48;;;;;;;;;;;;;;;18.05;52.14258;102945.9;;;;-74
2022/10/06 14:48:49;;;;;;;;;;;;;;;17.93;52.40039;102944;;;;-75
2022/10/06 14:53:53;;;;;;;;;;;;;;;17.86;53.18652;102934.8;;;;-75
2022/10/06 14:58:51;;;;;;;;;;;;;;;17.72;51.7168;102938.5;;;;-75
2022/10/06 15:00:04;;;;;;;4.3;0.7;;;;;;;;;;;;;-74
2022/10/06 15:03:54;;;;;;;;;;;;;;;17.7;52.68066;102940;;;;-74
2022/10/06 15:08:54;;;;;;;;;;;;;;;17.62;52.11328;102934.4;;;;-75
2022/10/06 15:13:53;;;;;;;;;;;;;;;17.55;51.91211;102932.4;;;;-74
2022/10/06 15:18:49;;;;;;;;;;;;;;;17.45;52.91016;102931.6;;;;-75
2022/10/06 15:23:53;;;;;;;;;;;;;;;17.35;51.91309;102927.5;;;;-75
2022/10/06 15:29:03;;;;;;;;;;;;;;;17.32;53.11035;102927.9;;;;-75
2022/10/06 15:30:03;;;;;;;7.2;1.1;;;;;;;;;;;;;-75
2022/10/06 15:33:50;;;;;;;;;;;;;;;17.23;52.80566;102918.6;;;;-74
2022/10/06 15:38:52;;;;;;;;;;;;;;;17.12;53.64063;102919.7;;;;-76
2022/10/06 15:43:57;;;;;;;;;;;;;;;17.02;53.2334;102913.7;;;;-75
2022/10/06 15:48:51;;;;;;;;;;;;;;;16.92;53.95703;102913.5;;;;-74
2022/10/06 15:53:58;;;;;;;;;;;;;;;16.83;54.22852;102921.8;;;;-74
2022/10/06 15:58:48;;;;;;;;;;;;;;;16.72;53.95313;102923.8;;;;-75
2022/10/06 16:00:07;;;;;;;5.9;1.1;;;;;;;;;;;;;-74
2022/10/06 16:03:49;;;;;;;;;;;;;;;16.62;54.29297;102915.2;;;;-73
2022/10/06 16:08:48;;;;;;;;;;;;;;;16.52;54.58496;102918.1;;;;-75
2022/10/06 16:13:48;;;;;;;;;;;;;;;16.4;54.55957;102919.2;;;;-75
2022/10/06 16:19:03;;;;;;;;;;;;;;;16.26;54.71191;102924;;;;-75
2022/10/06 16:23:49;;;;;;;;;;;;;;;16.13;55.23633;102924.3;;;;-75
2022/10/06 16:28:48;;;;;;;;;;;;;;;16;55.28906;102915.6;;;;-74
2022/10/06 16:34:10;;;;;;;;;;;;;;;15.94;55.46191;102911.4;;;;-75
2022/10/06 16:37:07;;;;;;;;;;;;;;;15.79;55.3877;102908.8;;;;-75
2022/10/06 16:42:07;;;;;;;;;;;;;;;15.66;55.64063;102907;;;;-74
2022/10/06 16:47:07;;;;;;;;;;;;;;;15.51;55.75781;102905.3;;;;-74
2022/10/06 16:52:07;;;;;;;;;;;;;;;15.34;55.51074;102903.4;;;;-74
2022/10/06 16:57:07;;;;;;;;;;;;;;;15.2;55.82031;102899.4;;;;-76
2022/10/06 17:00:13;;;;;;;4.3;0.8;;;;;;;;;;;;;-75
2022/10/06 17:02:07;;;;;;;;;;;;;;;15.05;56.52246;102898.2;;;;-75
2022/10/06 17:07:07;;;;;;;;;;;;;;;14.91;55.94043;102903.2;;;;-74
2022/10/06 17:12:07;;;;;;;;;;;;;;;14.78;56.75586;102904.9;;;;-75
2022/10/06 17:17:07;;;;;;;;;;;;;;;14.66;56.89941;102908;;;;-75
2022/10/06 17:22:07;;;;;;;;;;;;;;;14.52;56.44238;102916.6;;;;-74
2022/10/06 17:27:09;;;;;;;;;;;;;;;14.35;56.93652;102911.9;;;;-75
2022/10/06 17:30:14;;;;;;;6;0.8;;;;;;;;;;;;;-74
2022/10/06 17:32:07;;;;;;;;;;;;;;;14.27;57.38867;102912.6;;;;-73
2022/10/06 17:37:07;;;;;;;;;;;;;;;14.15;57.59668;102906.8;;;;-74
2022/10/06 17:42:07;;;;;;;;;;;;;;;13.99;58.07031;102908.9;;;;-75
2022/10/06 17:47:11;;;;;;;;;;;;;;;13.85;58.35352;102910.2;;;;-75
2022/10/06 17:52:09;;;;;;;;;;;;;;;13.73;58.03613;102910;;;;-74
2022/10/06 17:57:07;;;;;;;;;;;;;;;13.6;58.47852;102906.4;;;;-74
2022/10/06 18:00:17;;;;;;;4.3;1.1;;;;;;;;;;;;;-75
2022/10/06 18:02:12;;;;;;;;;;;;;;;13.45;58.95117;102904;;;;-74
2022/10/06 18:07:08;;;;;;;;;;;;;;;13.37;59.09766;102908;;;;-74
2022/10/06 18:12:09;;;;;;;;;;;;;;;13.28;59.53418;102911.7;;;;-75
2022/10/06 18:17:07;;;;;;;;;;;;;;;13.19;58.99512;102914.1;;;;-74
2022/10/06 18:22:10;;;;;;;;;;;;;;;13.09;59.37305;102913.4;;;;-74
2022/10/06 18:27:07;;;;;;;;;;;;;;;13;59.75293;102914.7;;;;-74
2022/10/06 18:30:15;;;;;;;5;1.1;;;;;;;;;;;;;-75
2022/10/06 18:32:07;;;;;;;;;;;;;;;12.92;59.86523;102909.6;;;;-75
2022/10/06 18:37:09;;;;;;;;;;;;;;;12.84;60.20117;102907.4;;;;-76
2022/10/06 18:42:07;;;;;;;;;;;;;;;12.77;60.09082;102903.1;;;;-73
2022/10/06 18:52:07;;;;;;;;;;;;;;;12.64;60.20703;102898;;;;-73
2022/10/06 18:57:07;;;;;;;;;;;;;;;12.58;60.33203;102900.9;;;;-73
2022/10/06 19:00:20;;;;;;;4.7;1.3;;;;;;;;;;;;;-75
2022/10/06 19:02:07;;;;;;;;;;;;;;;12.49;60.62305;102899.9;;;;-75
2022/10/06 19:07:08;;;;;;;;;;;;;;;12.44;60.73828;102896.5;;;;-75
2022/10/06 19:12:10;;;;;;;;;;;;;;;12.4;60.72168;102895;;;;-74
2022/10/06 19:17:12;;;;;;;;;;;;;;;12.32;61.14746;102896.6;;;;-73
2022/10/06 19:22:08;;;;;;;;;;;;;;;12.27;61.18359;102896.8;;;;-75
2022/10/06 19:27:11;;;;;;;;;;;;;;;12.22;61.08789;102892.3;;;;-75
2022/10/06 19:30:17;;;;;;;5.2;1.4;;;;;;;;;;;;;-75
2022/10/06 19:32:08;;;;;;;;;;;;;;;12.16;61.58301;102889.8;;;;-75
2022/10/06 19:37:07;;;;;;;;;;;;;;;12.1;61.83105;102889.9;;;;-76
2022/10/06 19:47:07;;;;;;;;;;;;;;;12.05;62.31543;102887.5;;;;-74
2022/10/06 19:52:07;;;;;;;;;;;;;;;12.04;62.10059;102891.8;;;;-73
2022/10/06 19:57:10;;;;;;;;;;;;;;;12.01;61.98535;102894.2;;;;-73
2022/10/06 20:00:19;;;;;;;5.6;1.4;;;;;;;;;;;;;-76
2022/10/06 20:02:09;;;;;;;;;;;;;;;11.96;62.36816;102887.2;;;;-75
2022/10/06 20:07:07;;;;;;;;;;;;;;;11.93;62.65527;102873.2;;;;-76
2022/10/06 20:12:08;;;;;;;;;;;;;;;11.89;62.92773;102880.4;;;;-74
2022/10/06 20:17:07;;;;;;;;;;;;;;;11.87;63.08203;102887.7;;;;-75
2022/10/06 20:22:07;;;;;;;;;;;;;;;11.83;62.99707;102890.5;;;;-74
2022/10/06 20:27:07;;;;;;;;;;;;;;;11.81;63.08203;102899.3;;;;-75
2022/10/06 20:30:19;;;;;;;6.7;1.2;;;;;;;;;;;;;-76
2022/10/06 20:32:07;;;;;;;;;;;;;;;11.73;63.07129;102896.3;;;;-74
2022/10/06 20:37:08;;;;;;;;;;;;;;;11.73;62.88184;102893.4;;;;-76
2022/10/06 20:42:07;;;;;;;;;;;;;;;11.67;63.4209;102884.2;;;;-75
2022/10/06 20:47:09;;;;;;;;;;;;;;;11.66;63.84277;102890.2;;;;-77
2022/10/06 20:52:08;;;;;;;;;;;;;;;11.6;63.90039;102885.2;;;;-74
2022/10/06 20:57:08;;;;;;;;;;;;;;;11.57;63.41895;102880;;;;-74
2022/10/06 21:00:20;;;;;;;7.4;1.6;;;;;;;;;;;;;-75
2022/10/06 21:02:07;;;;;;;;;;;;;;;11.53;63.86719;102878.1;;;;-75
2022/10/06 21:07:07;;;;;;;;;;;;;;;11.52;63.77832;102872.2;;;;-74
2022/10/06 21:12:07;;;;;;;;;;;;;;;11.5;63.95313;102862.9;;;;-74
2022/10/06 21:17:06;;;;;;;;;;;;;;;11.44;64.28906;102856.3;;;;-75
2022/10/06 21:22:09;;;;;;;;;;;;;;;11.4;64.25;102850.4;;;;-75
2022/10/06 21:27:07;;;;;;;;;;;;;;;11.4;64.19434;102847.4;;;;-75
2022/10/06 21:30:21;;;;;;;6.1;1.3;;;;;;;;;;;;;-75
2022/10/06 21:32:08;;;;;;;;;;;;;;;11.38;64.13574;102843.4;;;;-72
2022/10/06 21:37:07;;;;;;;;;;;;;;;11.37;64.79004;102844.1;;;;-75
2022/10/06 21:42:07;;;;;;;;;;;;;;;11.36;64.61035;102841.9;;;;-75
2022/10/06 21:47:07;;;;;;;;;;;;;;;11.33;65.30859;102832.7;;;;-74
2022/10/06 21:52:07;;;;;;;;;;;;;;;11.32;65.43066;102823.9;;;;-74
2022/10/06 21:57:07;;;;;;;;;;;;;;;11.31;65.51758;102822.7;;;;-75
2022/10/06 22:00:24;;;;;;;7.5;1.7;;;;;;;;;;;;;-74
2022/10/06 22:02:06;;;;;;;;;;;;;;;11.28;66.29199;102811.5;;;;-73
2022/10/06 22:07:24;;;;;;;;;;;;;;;11.28;65.71387;102803.4;;;;-76
2022/10/06 22:12:07;;;;;;;;;;;;;;;11.28;66.33691;102800.6;;;;-75
2022/10/06 22:17:07;;;;;;;;;;;;;;;11.24;66.33105;102793.3;;;;-74
2022/10/06 22:22:07;;;;;;;;;;;;;;;11.24;66.55273;102785.6;;;;-77
2022/10/06 22:27:09;;;;;;;;;;;;;;;11.2;66.33691;102786;;;;-74
2022/10/06 22:30:23;;;;;;;5.5;1.4;;;;;;;;;;;;;-74
2022/10/06 22:32:07;;;;;;;;;;;;;;;11.17;66.78613;102785.2;;;;-76
2022/10/06 22:37:08;;;;;;;;;;;;;;;11.18;66.41016;102778.1;;;;-74
2022/10/06 22:42:07;;;;;;;;;;;;;;;11.17;66.69824;102766.9;;;;-74
2022/10/06 22:47:10;;;;;;;;;;;;;;;11.13;67.02539;102758.5;;;;-75
2022/10/06 22:52:06;;;;;;;;;;;;;;;11.12;67.51367;102750.7;;;;-75
2022/10/06 22:57:09;;;;;;;;;;;;;;;11.1;67.85645;102746.1;;;;-75
2022/10/06 23:00:26;;;;;;;6.2;1.5;;;;;;;;;;;;;-75
2022/10/06 23:02:06;;;;;;;;;;;;;;;11.11;67.72461;102739.2;;;;-75
2022/10/06 23:07:07;;;;;;;;;;;;;;;11.1;67.44531;102737.9;;;;-73
2022/10/06 23:12:07;;;;;;;;;;;;;;;11.11;67.17773;102730.1;;;;-75
2022/10/06 23:17:07;;;;;;;;;;;;;;;11.07;68.01953;102723.5;;;;-76
2022/10/06 23:22:07;;;;;;;;;;;;;;;11.07;68.31738;102727;;;;-75
2022/10/06 23:27:07;;;;;;;;;;;;;;;11.07;67.84961;102715.9;;;;-74
2022/10/06 23:30:25;;;;;;;4.5;1.3;;;;;;;;;;;;;-75
2022/10/06 23:32:07;;;;;;;;;;;;;;;11.05;67.77051;102712;;;;-74
2022/10/06 23:37:08;;;;;;;;;;;;;;;11.02;68.31055;102711.2;;;;-76
2022/10/06 23:42:08;;;;;;;;;;;;;;;11;68.42969;102713.9;;;;-74
2022/10/06 23:47:09;;;;;;;;;;;;;;;10.99;68.53809;102707.2;;;;-74
2022/10/06 23:52:09;;;;;;;;;;;;;;;10.99;68.19238;102698.5;;;;-74
2022/10/06 23:57:08;;;;;;;;;;;;;;;10.96;68.32129;102698.1;;;;-74
